sensor_id;sensor_type;location;lat;lon;timestamp;pressure;altitude;pressure_sealevel;temperature;humidity
41246;BME280;53880;47.526;18.986;2024-02-16T00:00:42;100479.88;;;20.08;45.93
41246;BME280;53880;47.526;18.986;2024-02-16T00:03:21;100479.16;;;20.06;45.79
41246;BME280;53880;47.526;18.986;2024-02-16T00:05:39;100476.34;;;20.08;46.00
41246;BME280;53880;47.526;18.986;2024-02-16T00:08:00;100480.00;;;20.07;45.82
41246;BME280;53880;47.526;18.986;2024-02-16T00:10:20;100478.47;;;20.04;46.14
41246;BME280;53880;47.526;18.986;2024-02-16T00:12:37;100474.81;;;20.05;46.05
41246;BME280;53880;47.526;18.986;2024-02-16T00:14:57;100462.69;;;20.11;45.91
41246;BME280;53880;47.526;18.986;2024-02-16T00:17:15;100473.81;;;20.16;45.71
41246;BME280;53880;47.526;18.986;2024-02-16T00:19:30;100470.56;;;20.12;45.86
41246;BME280;53880;47.526;18.986;2024-02-16T00:21:46;100474.50;;;20.08;45.79
41246;BME280;53880;47.526;18.986;2024-02-16T00:24:08;100473.53;;;20.09;45.97
41246;BME280;53880;47.526;18.986;2024-02-16T00:26:25;100467.19;;;20.10;46.14
41246;BME280;53880;47.526;18.986;2024-02-16T00:28:40;100466.38;;;20.10;46.06
41246;BME280;53880;47.526;18.986;2024-02-16T00:30:59;100461.28;;;20.07;46.32
41246;BME280;53880;47.526;18.986;2024-02-16T00:33:16;100468.63;;;20.05;46.50
41246;BME280;53880;47.526;18.986;2024-02-16T00:35:36;100467.78;;;20.04;46.78
41246;BME280;53880;47.526;18.986;2024-02-16T00:37:54;100466.78;;;20.05;46.53
41246;BME280;53880;47.526;18.986;2024-02-16T00:40:09;100465.09;;;20.04;46.87
41246;BME280;53880;47.526;18.986;2024-02-16T00:42:24;100464.13;;;20.05;46.56
41246;BME280;53880;47.526;18.986;2024-02-16T00:44:41;100470.44;;;20.04;46.70
41246;BME280;53880;47.526;18.986;2024-02-16T00:46:57;100472.25;;;20.04;46.81
41246;BME280;53880;47.526;18.986;2024-02-16T00:49:20;100470.75;;;20.01;47.08
41246;BME280;53880;47.526;18.986;2024-02-16T00:51:37;100474.56;;;19.99;47.20
41246;BME280;53880;47.526;18.986;2024-02-16T00:53:53;100472.00;;;19.97;46.98
41246;BME280;53880;47.526;18.986;2024-02-16T00:56:07;100467.50;;;19.98;47.51
41246;BME280;53880;47.526;18.986;2024-02-16T00:58:28;100472.00;;;19.97;47.71
41246;BME280;53880;47.526;18.986;2024-02-16T01:00:47;100464.28;;;19.94;47.58
41246;BME280;53880;47.526;18.986;2024-02-16T01:03:05;100467.94;;;19.93;47.67
41246;BME280;53880;47.526;18.986;2024-02-16T01:05:20;100465.56;;;19.90;47.69
41246;BME280;53880;47.526;18.986;2024-02-16T01:07:36;100467.22;;;19.91;47.84
41246;BME280;53880;47.526;18.986;2024-02-16T01:09:51;100460.50;;;19.87;47.69
41246;BME280;53880;47.526;18.986;2024-02-16T01:12:07;100459.78;;;19.85;47.77
41246;BME280;53880;47.526;18.986;2024-02-16T01:14:22;100457.13;;;19.85;47.86
41246;BME280;53880;47.526;18.986;2024-02-16T01:16:39;100457.97;;;19.86;47.80
41246;BME280;53880;47.526;18.986;2024-02-16T01:18:57;100460.75;;;19.84;47.76
41246;BME280;53880;47.526;18.986;2024-02-16T01:21:15;100463.75;;;19.81;48.01
41246;BME280;53880;47.526;18.986;2024-02-16T01:23:32;100459.25;;;19.82;47.84
41246;BME280;53880;47.526;18.986;2024-02-16T01:25:49;100458.53;;;19.80;48.02
41246;BME280;53880;47.526;18.986;2024-02-16T01:28:07;100462.03;;;19.80;48.10
41246;BME280;53880;47.526;18.986;2024-02-16T01:30:29;100461.34;;;19.78;47.95
41246;BME280;53880;47.526;18.986;2024-02-16T01:32:46;100455.28;;;19.76;47.95
41246;BME280;53880;47.526;18.986;2024-02-16T01:35:04;100453.47;;;19.76;47.61
41246;BME280;53880;47.526;18.986;2024-02-16T01:37:25;100461.50;;;19.76;47.95
41246;BME280;53880;47.526;18.986;2024-02-16T01:39:40;100459.94;;;19.74;47.54
41246;BME280;53880;47.526;18.986;2024-02-16T01:42:00;100452.06;;;19.72;47.59
41246;BME280;53880;47.526;18.986;2024-02-16T01:44:20;100458.28;;;19.73;47.78
41246;BME280;53880;47.526;18.986;2024-02-16T01:46:37;100463.75;;;19.71;47.73
41246;BME280;53880;47.526;18.986;2024-02-16T01:48:52;100462.91;;;19.71;47.91
41246;BME280;53880;47.526;18.986;2024-02-16T01:51:11;100452.22;;;19.71;47.91
41246;BME280;53880;47.526;18.986;2024-02-16T01:53:33;100455.16;;;19.68;47.68
41246;BME280;53880;47.526;18.986;2024-02-16T01:55:51;100456.03;;;19.68;47.80
41246;BME280;53880;47.526;18.986;2024-02-16T01:58:07;100457.84;;;19.68;47.88
41246;BME280;53880;47.526;18.986;2024-02-16T02:00:24;100458.69;;;19.68;47.91
41246;BME280;53880;47.526;18.986;2024-02-16T02:02:43;100444.63;;;19.66;47.81
41246;BME280;53880;47.526;18.986;2024-02-16T02:05:04;100448.28;;;19.65;48.15
41246;BME280;53880;47.526;18.986;2024-02-16T02:07:25;100452.78;;;19.65;47.85
41246;BME280;53880;47.526;18.986;2024-02-16T02:09:43;100451.09;;;19.64;47.89
41246;BME280;53880;47.526;18.986;2024-02-16T02:12:01;100448.44;;;19.64;48.21
41246;BME280;53880;47.526;18.986;2024-02-16T02:14:22;100447.84;;;19.60;48.05
41246;BME280;53880;47.526;18.986;2024-02-16T02:16:41;100445.31;;;19.59;48.03
41246;BME280;53880;47.526;18.986;2024-02-16T02:18:58;100450.69;;;19.59;48.23
41246;BME280;53880;47.526;18.986;2024-02-16T02:21:13;100440.13;;;19.57;48.21
41246;BME280;53880;47.526;18.986;2024-02-16T02:23:31;100435.63;;;19.58;48.54
41246;BME280;53880;47.526;18.986;2024-02-16T02:25:51;100443.94;;;19.55;48.33
41246;BME280;53880;47.526;18.986;2024-02-16T02:28:08;100442.22;;;19.54;48.47
41246;BME280;53880;47.526;18.986;2024-02-16T02:30:25;100443.94;;;19.55;48.35
41246;BME280;53880;47.526;18.986;2024-02-16T02:32:45;100447.72;;;19.52;48.59
41246;BME280;53880;47.526;18.986;2024-02-16T02:35:06;100450.41;;;19.52;48.40
41246;BME280;53880;47.526;18.986;2024-02-16T02:37:25;100443.22;;;19.53;48.37
41246;BME280;53880;47.526;18.986;2024-02-16T02:39:41;100441.53;;;19.52;48.54
41246;BME280;53880;47.526;18.986;2024-02-16T02:41:59;100447.88;;;19.51;48.55
41246;BME280;53880;47.526;18.986;2024-02-16T02:44:18;100454.06;;;19.51;48.47
41246;BME280;53880;47.526;18.986;2024-02-16T02:46:34;100450.56;;;19.51;48.62
41246;BME280;53880;47.526;18.986;2024-02-16T02:48:51;100443.50;;;19.50;48.53
41246;BME280;53880;47.526;18.986;2024-02-16T02:51:09;100442.69;;;19.49;48.36
41246;BME280;53880;47.526;18.986;2024-02-16T02:53:28;100443.66;;;19.48;48.32
41246;BME280;53880;47.526;18.986;2024-02-16T02:55:48;100444.50;;;19.49;48.32
41246;BME280;53880;47.526;18.986;2024-02-16T02:58:03;100440.97;;;19.48;48.51
41246;BME280;53880;47.526;18.986;2024-02-16T03:00:20;100453.50;;;19.48;48.30
41246;BME280;53880;47.526;18.986;2024-02-16T03:02:41;100448.44;;;19.45;48.36
41246;BME280;53880;47.526;18.986;2024-02-16T03:04:58;100449.41;;;19.44;48.42
41246;BME280;53880;47.526;18.986;2024-02-16T03:07:16;100450.53;;;19.41;48.60
41246;BME280;53880;47.526;18.986;2024-02-16T03:09:31;100454.22;;;19.40;48.57
41246;BME280;53880;47.526;18.986;2024-02-16T03:11:51;100459.56;;;19.40;48.57
41246;BME280;53880;47.526;18.986;2024-02-16T03:14:08;100457.00;;;19.39;48.47
41246;BME280;53880;47.526;18.986;2024-02-16T03:16:26;100457.16;;;19.37;48.52
41246;BME280;53880;47.526;18.986;2024-02-16T03:18:48;100452.66;;;19.38;48.67
41246;BME280;53880;47.526;18.986;2024-02-16T03:21:08;100460.81;;;19.36;48.60
41246;BME280;53880;47.526;18.986;2024-02-16T03:23:27;100457.31;;;19.36;48.52
41246;BME280;53880;47.526;18.986;2024-02-16T03:25:45;100452.81;;;19.36;48.57
41246;BME280;53880;47.526;18.986;2024-02-16T03:28:00;100450.38;;;19.33;48.88
41246;BME280;53880;47.526;18.986;2024-02-16T03:30:16;100447.59;;;19.35;48.76
41246;BME280;53880;47.526;18.986;2024-02-16T03:32:34;100450.38;;;19.33;48.56
41246;BME280;53880;47.526;18.986;2024-02-16T03:34:49;100452.34;;;19.31;48.61
41246;BME280;53880;47.526;18.986;2024-02-16T03:37:06;100451.50;;;19.31;48.80
41246;BME280;53880;47.526;18.986;2024-02-16T03:39:21;100449.81;;;19.30;48.67
41246;BME280;53880;47.526;18.986;2024-02-16T03:41:41;100450.78;;;19.29;48.86
41246;BME280;53880;47.526;18.986;2024-02-16T03:43:59;100449.81;;;19.30;48.59
41246;BME280;53880;47.526;18.986;2024-02-16T03:46:15;100448.81;;;19.31;48.94
41246;BME280;53880;47.526;18.986;2024-02-16T03:48:32;100444.47;;;19.30;48.92
41246;BME280;53880;47.526;18.986;2024-02-16T03:50:47;100449.94;;;19.28;48.93
41246;BME280;53880;47.526;18.986;2024-02-16T03:53:05;100440.66;;;19.23;48.77
41246;BME280;53880;47.526;18.986;2024-02-16T03:55:23;100442.63;;;19.21;48.89
41246;BME280;53880;47.526;18.986;2024-02-16T03:57:43;100446.97;;;19.22;49.04
41246;BME280;53880;47.526;18.986;2024-02-16T03:59:58;100453.47;;;19.19;49.03
41246;BME280;53880;47.526;18.986;2024-02-16T04:02:14;100445.56;;;19.18;49.01
41246;BME280;53880;47.526;18.986;2024-02-16T04:04:29;100449.25;;;19.17;48.83
41246;BME280;53880;47.526;18.986;2024-02-16T04:06:46;100455.41;;;19.17;48.91
41246;BME280;53880;47.526;18.986;2024-02-16T04:09:01;100454.59;;;19.17;48.89
41246;BME280;53880;47.526;18.986;2024-02-16T04:11:17;100464.56;;;19.15;48.84
41246;BME280;53880;47.526;18.986;2024-02-16T04:13:36;100464.69;;;19.13;48.89
41246;BME280;53880;47.526;18.986;2024-02-16T04:15:52;100461.19;;;19.13;49.10
41246;BME280;53880;47.526;18.986;2024-02-16T04:18:07;100464.13;;;19.10;48.92
41246;BME280;53880;47.526;18.986;2024-02-16T04:20:24;100465.94;;;19.09;48.87
41246;BME280;53880;47.526;18.986;2024-02-16T04:22:39;100464.28;;;19.08;48.99
41246;BME280;53880;47.526;18.986;2024-02-16T04:24:57;100468.63;;;19.09;48.89
41246;BME280;53880;47.526;18.986;2024-02-16T04:27:12;100469.47;;;19.10;48.82
41246;BME280;53880;47.526;18.986;2024-02-16T04:29:30;100467.66;;;19.10;48.86
41246;BME280;53880;47.526;18.986;2024-02-16T04:31:47;100470.31;;;19.10;48.73
41246;BME280;53880;47.526;18.986;2024-02-16T04:34:05;100469.47;;;19.10;48.69
41246;BME280;53880;47.526;18.986;2024-02-16T04:36:22;100473.09;;;19.09;48.87
41246;BME280;53880;47.526;18.986;2024-02-16T04:38:40;100476.78;;;19.08;48.78
41246;BME280;53880;47.526;18.986;2024-02-16T04:40:55;100475.06;;;19.07;48.72
41246;BME280;53880;47.526;18.986;2024-02-16T04:43:13;100479.59;;;19.06;48.82
41246;BME280;53880;47.526;18.986;2024-02-16T04:45:30;100478.44;;;19.09;48.66
41246;BME280;53880;47.526;18.986;2024-02-16T04:47:47;100476.06;;;19.06;48.90
41246;BME280;53880;47.526;18.986;2024-02-16T04:50:03;100480.56;;;19.05;48.94
41246;BME280;53880;47.526;18.986;2024-02-16T04:52:20;100479.00;;;19.02;48.96
41246;BME280;53880;47.526;18.986;2024-02-16T04:54:36;100472.69;;;19.03;48.86
41246;BME280;53880;47.526;18.986;2024-02-16T04:56:54;100476.22;;;19.04;48.75
41246;BME280;53880;47.526;18.986;2024-02-16T04:59:09;100479.00;;;19.02;48.86
41246;BME280;53880;47.526;18.986;2024-02-16T05:01:29;100477.34;;;19.01;48.86
41246;BME280;53880;47.526;18.986;2024-02-16T05:03:49;100481.81;;;19.01;48.83
41246;BME280;53880;47.526;18.986;2024-02-16T05:06:09;100482.69;;;19.01;48.79
41246;BME280;53880;47.526;18.986;2024-02-16T05:08:24;100481.69;;;19.02;48.86
41246;BME280;53880;47.526;18.986;2024-02-16T05:10:44;100481.69;;;19.02;48.92
41246;BME280;53880;47.526;18.986;2024-02-16T05:13:06;100484.66;;;18.99;48.85
41246;BME280;53880;47.526;18.986;2024-02-16T05:15:21;100479.31;;;18.99;48.90
41246;BME280;53880;47.526;18.986;2024-02-16T05:17:38;100480.28;;;18.98;48.87
41246;BME280;53880;47.526;18.986;2024-02-16T05:19:58;100481.28;;;18.97;48.95
41246;BME280;53880;47.526;18.986;2024-02-16T05:22:13;100483.09;;;18.97;48.79
41246;BME280;53880;47.526;18.986;2024-02-16T05:24:29;100478.59;;;18.97;48.89
41246;BME280;53880;47.526;18.986;2024-02-16T05:26:47;100485.06;;;18.95;48.88
41246;BME280;53880;47.526;18.986;2024-02-16T05:29:02;100477.31;;;18.92;48.92
41246;BME280;53880;47.526;18.986;2024-02-16T05:31:19;100485.75;;;18.97;48.89
41246;BME280;53880;47.526;18.986;2024-02-16T05:33:37;100490.69;;;19.01;48.96
41246;BME280;53880;47.526;18.986;2024-02-16T05:35:57;100487.59;;;19.06;48.77
41246;BME280;53880;47.526;18.986;2024-02-16T05:38:13;100489.03;;;19.10;48.62
41246;BME280;53880;47.526;18.986;2024-02-16T05:40:49;100487.59;;;19.16;48.48
41246;BME280;53880;47.526;18.986;2024-02-16T05:43:15;100488.75;;;19.23;48.46
41246;BME280;53880;47.526;18.986;2024-02-16T05:45:36;100497.75;;;19.31;48.42
41246;BME280;53880;47.526;18.986;2024-02-16T05:47:54;100492.72;;;19.38;48.23
41246;BME280;53880;47.526;18.986;2024-02-16T05:50:17;100493.88;;;19.45;48.10
41246;BME280;53880;47.526;18.986;2024-02-16T05:52:32;100487.81;;;19.52;48.08
41246;BME280;53880;47.526;18.986;2024-02-16T05:54:49;100491.47;;;19.61;48.15
41246;BME280;53880;47.526;18.986;2024-02-16T05:57:08;100497.94;;;19.68;47.99
41246;BME280;53880;47.526;18.986;2024-02-16T05:59:27;100498.22;;;19.74;47.92
41246;BME280;53880;47.526;18.986;2024-02-16T06:01:50;100496.78;;;19.80;47.93
41246;BME280;53880;47.526;18.986;2024-02-16T06:04:07;100499.91;;;19.85;47.84
41246;BME280;53880;47.526;18.986;2024-02-16T06:06:25;100503.97;;;19.89;47.84
41246;BME280;53880;47.526;18.986;2024-02-16T06:08:45;100502.56;;;19.95;47.78
41246;BME280;53880;47.526;18.986;2024-02-16T06:11:10;100500.44;;;19.98;47.78
41246;BME280;53880;47.526;18.986;2024-02-16T06:13:27;100506.22;;;20.03;47.70
41246;BME280;53880;47.526;18.986;2024-02-16T06:15:46;100507.63;;;20.07;47.77
41246;BME280;53880;47.526;18.986;2024-02-16T06:18:04;100503.50;;;20.13;47.76
41246;BME280;53880;47.526;18.986;2024-02-16T06:20:20;100505.06;;;20.15;47.58
41246;BME280;53880;47.526;18.986;2024-02-16T06:22:35;100507.31;;;20.20;47.54
41246;BME280;53880;47.526;18.986;2024-02-16T06:24:51;100512.25;;;20.24;47.61
41246;BME280;53880;47.526;18.986;2024-02-16T06:27:11;100510.97;;;20.28;47.67
41246;BME280;53880;47.526;18.986;2024-02-16T06:29:28;100516.75;;;20.33;47.44
41246;BME280;53880;47.526;18.986;2024-02-16T06:31:49;100507.56;;;20.36;47.36
41246;BME280;53880;47.526;18.986;2024-02-16T06:34:10;100520.50;;;20.40;47.43
41246;BME280;53880;47.526;18.986;2024-02-16T06:36:25;100515.84;;;20.42;47.37
41246;BME280;53880;47.526;18.986;2024-02-16T06:38:42;100523.44;;;20.47;47.25
41246;BME280;53880;47.526;18.986;2024-02-16T06:41:00;100527.50;;;20.51;47.04
41246;BME280;53880;47.526;18.986;2024-02-16T06:43:17;100521.03;;;20.53;47.28
41246;BME280;53880;47.526;18.986;2024-02-16T06:45:37;100529.47;;;20.59;47.06
41246;BME280;53880;47.526;18.986;2024-02-16T06:47:52;100528.47;;;20.60;46.96
41246;BME280;53880;47.526;18.986;2024-02-16T06:50:10;100528.19;;;20.63;46.84
41246;BME280;53880;47.526;18.986;2024-02-16T06:52:27;100534.06;;;20.66;46.79
41246;BME280;53880;47.526;18.986;2024-02-16T06:54:45;100539.16;;;20.69;46.63
41246;BME280;53880;47.526;18.986;2024-02-16T06:57:05;100546.03;;;20.72;46.61
41246;BME280;53880;47.526;18.986;2024-02-16T06:59:20;100540.38;;;20.75;46.66
41246;BME280;53880;47.526;18.986;2024-02-16T07:01:37;100541.06;;;20.77;46.65
41246;BME280;53880;47.526;18.986;2024-02-16T07:03:53;100543.47;;;20.80;46.46
41246;BME280;53880;47.526;18.986;2024-02-16T07:06:08;100552.88;;;20.84;46.55
41246;BME280;53880;47.526;18.986;2024-02-16T07:08:28;100550.09;;;20.85;46.46
41246;BME280;53880;47.526;18.986;2024-02-16T07:10:43;100558.66;;;20.89;46.43
41246;BME280;53880;47.526;18.986;2024-02-16T07:13:04;100556.50;;;20.92;46.43
41246;BME280;53880;47.526;18.986;2024-02-16T07:15:22;100551.03;;;20.94;46.44
41246;BME280;53880;47.526;18.986;2024-02-16T07:17:40;100554.09;;;20.99;46.32
41246;BME280;53880;47.526;18.986;2024-02-16T07:19:58;100555.38;;;20.95;44.92
41246;BME280;53880;47.526;18.986;2024-02-16T07:22:13;100550.31;;;20.92;43.44
41246;BME280;53880;47.526;18.986;2024-02-16T07:24:31;100552.19;;;20.82;42.03
41246;BME280;53880;47.526;18.986;2024-02-16T07:26:48;100555.47;;;20.76;41.05
41246;BME280;53880;47.526;18.986;2024-02-16T07:29:04;100554.50;;;20.67;40.05
41246;BME280;53880;47.526;18.986;2024-02-16T07:31:19;100561.31;;;20.62;39.47
41246;BME280;53880;47.526;18.986;2024-02-16T07:33:38;100549.88;;;20.60;39.13
41246;BME280;53880;47.526;18.986;2024-02-16T07:35:56;100561.88;;;20.56;38.83
41246;BME280;53880;47.526;18.986;2024-02-16T07:38:14;100555.81;;;20.53;38.76
41246;BME280;53880;47.526;18.986;2024-02-16T07:40:31;100550.34;;;20.55;38.50
41246;BME280;53880;47.526;18.986;2024-02-16T07:42:49;100557.38;;;20.56;38.30
41246;BME280;53880;47.526;18.986;2024-02-16T07:45:07;100548.47;;;20.56;38.32
41246;BME280;53880;47.526;18.986;2024-02-16T07:47:25;100545.13;;;20.53;38.05
41246;BME280;53880;47.526;18.986;2024-02-16T07:49:40;100548.78;;;20.52;38.24
41246;BME280;53880;47.526;18.986;2024-02-16T07:51:57;100538.38;;;20.49;38.03
41246;BME280;53880;47.526;18.986;2024-02-16T07:54:19;100543.19;;;20.46;37.80
41246;BME280;53880;47.526;18.986;2024-02-16T07:56:35;100542.59;;;20.42;37.74
41246;BME280;53880;47.526;18.986;2024-02-16T07:58:52;100541.09;;;20.40;37.72
41246;BME280;53880;47.526;18.986;2024-02-16T08:01:08;100540.34;;;20.38;37.59
41246;BME280;53880;47.526;18.986;2024-02-16T08:03:28;100539.53;;;20.37;37.39
41246;BME280;53880;47.526;18.986;2024-02-16T08:05:44;100543.50;;;20.33;37.24
41246;BME280;53880;47.526;18.986;2024-02-16T08:07:59;100542.91;;;20.30;37.23
41246;BME280;53880;47.526;18.986;2024-02-16T08:10:15;100541.53;;;20.26;37.28
41246;BME280;53880;47.526;18.986;2024-02-16T08:12:36;100542.81;;;20.22;37.47
41246;BME280;53880;47.526;18.986;2024-02-16T08:14:56;100547.59;;;20.18;37.39
41246;BME280;53880;47.526;18.986;2024-02-16T08:17:12;100549.84;;;20.13;37.54
41246;BME280;53880;47.526;18.986;2024-02-16T08:19:32;100538.84;;;20.07;37.69
41246;BME280;53880;47.526;18.986;2024-02-16T08:21:52;100543.34;;;20.06;37.48
41246;BME280;53880;47.526;18.986;2024-02-16T08:24:10;100537.47;;;20.03;37.65
41246;BME280;53880;47.526;18.986;2024-02-16T08:26:27;100539.56;;;19.99;38.04
41246;BME280;53880;47.526;18.986;2024-02-16T08:28:47;100549.44;;;19.99;37.96
41246;BME280;53880;47.526;18.986;2024-02-16T08:31:05;100547.19;;;19.94;37.73
41246;BME280;53880;47.526;18.986;2024-02-16T08:33:21;100549.00;;;19.94;37.52
41246;BME280;53880;47.526;18.986;2024-02-16T08:35:38;100542.25;;;19.90;37.43
41246;BME280;53880;47.526;18.986;2024-02-16T08:37:54;100548.72;;;19.87;37.45
41246;BME280;53880;47.526;18.986;2024-02-16T08:40:17;100550.16;;;19.82;37.28
41246;BME280;53880;47.526;18.986;2024-02-16T08:42:32;100546.91;;;19.78;37.39
41246;BME280;53880;47.526;18.986;2024-02-16T08:44:47;100553.66;;;19.72;37.66
41246;BME280;53880;47.526;18.986;2024-02-16T08:47:03;100548.72;;;19.68;37.77
41246;BME280;53880;47.526;18.986;2024-02-16T08:49:23;100551.53;;;19.76;37.90
41246;BME280;53880;47.526;18.986;2024-02-16T08:51:43;100552.41;;;19.76;37.96
41246;BME280;53880;47.526;18.986;2024-02-16T08:54:03;100554.22;;;19.76;38.36
41246;BME280;53880;47.526;18.986;2024-02-16T08:56:19;100547.47;;;19.82;38.11
41246;BME280;53880;47.526;18.986;2024-02-16T08:58:34;100549.28;;;19.91;38.00
41246;BME280;53880;47.526;18.986;2024-02-16T09:00:52;100549.00;;;20.03;38.28
41246;BME280;53880;47.526;18.986;2024-02-16T09:03:10;100559.53;;;20.14;38.16
41246;BME280;53880;47.526;18.986;2024-02-16T09:05:27;100552.78;;;20.20;38.03
41246;BME280;53880;47.526;18.986;2024-02-16T09:07:45;100557.75;;;20.24;38.41
41246;BME280;53880;47.526;18.986;2024-02-16T09:10:05;100554.75;;;20.27;38.39
41246;BME280;53880;47.526;18.986;2024-02-16T09:12:25;100558.97;;;20.30;38.42
41246;BME280;53880;47.526;18.986;2024-02-16T09:14:43;100562.94;;;20.35;38.65
41246;BME280;53880;47.526;18.986;2024-02-16T09:16:57;100558.56;;;20.34;38.57
41246;BME280;53880;47.526;18.986;2024-02-16T09:19:13;100553.34;;;20.33;38.13
41246;BME280;53880;47.526;18.986;2024-02-16T09:21:30;100548.97;;;20.32;38.36
41246;BME280;53880;47.526;18.986;2024-02-16T09:23:50;100551.81;;;20.30;38.42
41246;BME280;53880;47.526;18.986;2024-02-16T09:26:07;100550.09;;;20.29;38.67
41246;BME280;53880;47.526;18.986;2024-02-16T09:28:25;100559.13;;;20.28;38.64
41246;BME280;53880;47.526;18.986;2024-02-16T09:30:42;100561.09;;;20.26;38.58
41246;BME280;53880;47.526;18.986;2024-02-16T09:32:59;100557.59;;;20.26;38.54
41246;BME280;53880;47.526;18.986;2024-02-16T09:35:14;100560.41;;;20.24;38.64
41246;BME280;53880;47.526;18.986;2024-02-16T09:37:38;100563.38;;;20.21;39.22
41246;BME280;53880;47.526;18.986;2024-02-16T09:39:58;100559.56;;;20.24;39.29
41246;BME280;53880;47.526;18.986;2024-02-16T09:42:20;100557.31;;;20.29;39.44
41246;BME280;53880;47.526;18.986;2024-02-16T09:44:45;100557.56;;;20.35;39.67
41246;BME280;53880;47.526;18.986;2024-02-16T09:47:04;100568.13;;;20.46;40.55
41246;BME280;53880;47.526;18.986;2024-02-16T09:49:22;100564.25;;;20.59;40.87
41246;BME280;53880;47.526;18.986;2024-02-16T09:51:37;100566.78;;;20.70;41.09
41246;BME280;53880;47.526;18.986;2024-02-16T09:53:58;100565.03;;;20.78;41.00
41246;BME280;53880;47.526;18.986;2024-02-16T09:56:15;100565.84;;;20.88;40.74
41246;BME280;53880;47.526;18.986;2024-02-16T09:58:32;100558.91;;;20.95;40.63
41246;BME280;53880;47.526;18.986;2024-02-16T10:00:49;100562.69;;;21.02;40.87
41246;BME280;53880;47.526;18.986;2024-02-16T10:03:06;100567.47;;;21.08;40.75
41246;BME280;53880;47.526;18.986;2024-02-16T10:05:22;100554.47;;;21.13;40.88
41246;BME280;53880;47.526;18.986;2024-02-16T10:07:43;100550.50;;;21.17;40.71
41246;BME280;53880;47.526;18.986;2024-02-16T10:10:05;100557.94;;;21.23;40.79
41246;BME280;53880;47.526;18.986;2024-02-16T10:12:22;100551.28;;;21.27;40.78
41246;BME280;53880;47.526;18.986;2024-02-16T10:14:37;100552.66;;;21.32;40.75
41246;BME280;53880;47.526;18.986;2024-02-16T10:17:05;100552.22;;;21.36;40.80
41246;BME280;53880;47.526;18.986;2024-02-16T10:19:23;100549.25;;;21.39;40.46
41246;BME280;53880;47.526;18.986;2024-02-16T10:21:38;100547.25;;;21.41;40.44
41246;BME280;53880;47.526;18.986;2024-02-16T10:24:07;100541.91;;;21.41;40.54
41246;BME280;53880;47.526;18.986;2024-02-16T10:26:23;100540.19;;;21.40;40.33
41246;BME280;53880;47.526;18.986;2024-02-16T10:28:40;100536.13;;;21.36;40.14
41246;BME280;53880;47.526;18.986;2024-02-16T10:31:00;100532.94;;;21.33;39.77
41246;BME280;53880;47.526;18.986;2024-02-16T10:33:21;100539.56;;;21.28;39.54
41246;BME280;53880;47.526;18.986;2024-02-16T10:35:37;100540.03;;;21.24;39.78
41246;BME280;53880;47.526;18.986;2024-02-16T10:37:55;100535.13;;;21.19;39.60
41246;BME280;53880;47.526;18.986;2024-02-16T10:40:16;100531.75;;;21.17;39.56
41246;BME280;53880;47.526;18.986;2024-02-16T10:42:36;100526.53;;;21.16;40.02
41246;BME280;53880;47.526;18.986;2024-02-16T10:44:52;100527.38;;;21.16;40.28
41246;BME280;53880;47.526;18.986;2024-02-16T10:47:08;100523.16;;;21.14;40.20
41246;BME280;53880;47.526;18.986;2024-02-16T10:49:24;100519.50;;;21.15;40.63
41246;BME280;53880;47.526;18.986;2024-02-16T10:51:43;100515.00;;;21.15;40.74
41246;BME280;53880;47.526;18.986;2024-02-16T10:54:00;100516.66;;;21.16;40.74
41246;BME280;53880;47.526;18.986;2024-02-16T10:56:16;100511.31;;;21.16;40.81
41246;BME280;53880;47.526;18.986;2024-02-16T10:58:34;100506.63;;;21.18;40.14
41246;BME280;53880;47.526;18.986;2024-02-16T11:00:55;100506.22;;;21.13;39.33
41246;BME280;53880;47.526;18.986;2024-02-16T11:03:16;100506.16;;;21.05;38.10
41246;BME280;53880;47.526;18.986;2024-02-16T11:05:35;100498.44;;;20.93;38.45
41246;BME280;53880;47.526;18.986;2024-02-16T11:08:03;100495.09;;;20.81;39.41
41246;BME280;53880;47.526;18.986;2024-02-16T11:10:20;100489.38;;;20.76;39.88
41246;BME280;53880;47.526;18.986;2024-02-16T11:12:44;100496.56;;;20.76;40.54
41246;BME280;53880;47.526;18.986;2024-02-16T11:15:08;100488.69;;;20.74;40.13
41246;BME280;53880;47.526;18.986;2024-02-16T11:17:25;100487.84;;;20.74;40.50
41246;BME280;53880;47.526;18.986;2024-02-16T11:19:47;100485.00;;;20.75;40.01
41246;BME280;53880;47.526;18.986;2024-02-16T11:22:08;100483.88;;;20.78;40.31
41246;BME280;53880;47.526;18.986;2024-02-16T11:24:33;100479.84;;;20.91;40.28
41246;BME280;53880;47.526;18.986;2024-02-16T11:26:48;100476.13;;;21.02;38.83
41246;BME280;53880;47.526;18.986;2024-02-16T11:29:09;100478.91;;;21.10;38.30
41246;BME280;53880;47.526;18.986;2024-02-16T11:31:25;100476.31;;;21.18;37.85
41246;BME280;53880;47.526;18.986;2024-02-16T11:33:44;100476.41;;;21.26;37.55
41246;BME280;53880;47.526;18.986;2024-02-16T11:36:04;100466.06;;;21.31;36.91
41246;BME280;53880;47.526;18.986;2024-02-16T11:38:19;100467.34;;;21.27;36.99
41246;BME280;53880;47.526;18.986;2024-02-16T11:40:38;100468.59;;;21.15;36.85
41246;BME280;53880;47.526;18.986;2024-02-16T11:43:00;100465.81;;;21.07;36.57
41246;BME280;53880;47.526;18.986;2024-02-16T11:45:15;100451.59;;;20.97;35.97
41246;BME280;53880;47.526;18.986;2024-02-16T11:47:35;100452.25;;;20.81;35.70
41246;BME280;53880;47.526;18.986;2024-02-16T11:50:03;100460.13;;;20.65;35.54
41246;BME280;53880;47.526;18.986;2024-02-16T11:52:21;100456.09;;;20.51;35.66